createdAt,value
2023-05-06T00:03:00.333Z,59.07
2023-05-06T00:05:47.666Z,59.03
2023-05-06T00:08:34.274Z,58.93
2023-05-06T00:11:21.092Z,58.87
2023-05-06T00:14:07.339Z,58.85
2023-05-06T00:16:54.446Z,58.72
2023-05-06T00:19:40.803Z,58.64
2023-05-06T00:22:27.283Z,58.54
2023-05-06T00:25:13.918Z,58.43
2023-05-06T00:28:00.956Z,58.38
2023-05-06T00:30:47.495Z,58.29
2023-05-06T00:33:34.145Z,58.24
2023-05-06T00:36:20.607Z,58.13
2023-05-06T00:39:07.200Z,58.04
2023-05-06T00:41:54.633Z,57.96
2023-05-06T00:44:41.325Z,57.88
2023-05-06T00:47:27.966Z,57.83
2023-05-06T00:50:14.743Z,57.77
2023-05-06T00:53:04.160Z,57.71
2023-05-06T00:55:51.807Z,57.67
2023-05-06T00:58:38.964Z,57.59
2023-05-06T01:01:27.226Z,57.46
2023-05-06T01:04:13.900Z,57.41
2023-05-06T01:07:09.665Z,57.40
2023-05-06T01:10:06.894Z,57.24
2023-05-06T01:13:05.748Z,57.10
2023-05-06T01:15:54.867Z,56.86
2023-05-06T01:18:44.440Z,56.62
2023-05-06T01:21:35.004Z,56.56
2023-05-06T01:24:21.801Z,56.39
2023-05-06T01:27:10.521Z,56.14
2023-05-06T01:29:59.287Z,55.91
2023-05-06T01:33:19.069Z,55.85
2023-05-06T01:36:37.647Z,55.67
2023-05-06T01:39:31.113Z,55.56
2023-05-06T01:42:18.308Z,55.39
2023-05-06T01:45:07.109Z,55.14
2023-05-06T01:47:54.144Z,54.87
2023-05-06T01:50:41.740Z,54.73
2023-05-06T01:53:28.005Z,54.43
2023-05-06T01:56:14.589Z,54.36
2023-05-06T01:59:01.072Z,54.22
2023-05-06T02:01:47.536Z,53.77
2023-05-06T02:04:34.194Z,53.54
2023-05-06T02:07:21.182Z,53.48
2023-05-06T02:10:08.990Z,53.20
2023-05-06T02:12:57.675Z,53.09
2023-05-06T02:15:44.588Z,52.71
2023-05-06T02:18:35.425Z,52.43
2023-05-06T02:21:21.982Z,52.27
2023-05-06T02:24:08.482Z,52.21
2023-05-06T02:26:54.739Z,52.10
2023-05-06T02:29:41.075Z,51.78
2023-05-06T02:32:27.773Z,51.32
2023-05-06T02:35:14.501Z,51.06
2023-05-06T02:38:03.358Z,50.94
2023-05-06T02:40:50.158Z,50.61
2023-05-06T02:43:36.804Z,50.47
2023-05-06T02:46:25.013Z,50.48
2023-05-06T02:49:12.052Z,50.26
2023-05-06T02:51:58.984Z,49.98
2023-05-06T02:54:45.358Z,49.65
2023-05-06T02:57:31.916Z,49.37
2023-05-06T03:00:19.072Z,48.83
2023-05-06T03:03:05.767Z,48.75
2023-05-06T03:05:52.225Z,48.65
2023-05-06T03:08:39.314Z,48.66
2023-05-06T03:11:26.919Z,48.16
2023-05-06T03:14:13.672Z,47.90
2023-05-06T03:17:00.476Z,47.87
2023-05-06T03:19:46.803Z,47.95
2023-05-06T03:22:33.598Z,47.87
2023-05-06T03:25:20.189Z,47.72
2023-05-06T03:28:07.176Z,47.45
2023-05-06T03:30:53.903Z,47.56
2023-05-06T03:33:41.067Z,47.43
2023-05-06T03:36:29.615Z,47.45
2023-05-06T03:39:15.982Z,47.43
2023-05-06T03:42:02.679Z,47.28
2023-05-06T03:44:49.574Z,47.20
2023-05-06T03:47:37.152Z,47.15
2023-05-06T03:50:23.906Z,46.99
2023-05-06T03:53:11.896Z,47.04
2023-05-06T03:55:59.224Z,47.07
2023-05-06T03:58:46.321Z,46.88
2023-05-06T04:01:33.664Z,46.71
2023-05-06T04:04:20.240Z,46.54
2023-05-06T04:07:06.752Z,46.36
2023-05-06T04:09:53.189Z,46.39
2023-05-06T04:12:40.358Z,46.44
2023-05-06T04:15:26.764Z,46.41
2023-05-06T04:18:18.960Z,46.00
2023-05-06T04:21:12.237Z,45.80
2023-05-06T04:23:59.690Z,45.94
2023-05-06T04:26:52.023Z,45.99
2023-05-06T04:29:39.128Z,45.84
2023-05-06T04:32:25.717Z,45.80
2023-05-06T04:35:13.583Z,45.46
2023-05-06T04:38:00.174Z,45.09
2023-05-06T04:40:50.103Z,44.80
2023-05-06T04:43:36.811Z,45.11
2023-05-06T04:46:28.158Z,45.23
2023-05-06T04:49:14.739Z,45.10
2023-05-06T04:52:01.978Z,44.98
2023-05-06T04:54:48.585Z,44.92
2023-05-06T04:57:35.648Z,45.04
2023-05-06T05:00:22.932Z,44.90
2023-05-06T05:03:09.838Z,44.58
2023-05-06T05:05:57.900Z,44.38
2023-05-06T05:08:46.330Z,44.68
2023-05-06T05:11:33.149Z,44.54
2023-05-06T05:14:19.736Z,44.40
2023-05-06T05:17:06.614Z,44.38
2023-05-06T05:19:53.951Z,44.52
2023-05-06T05:22:40.980Z,44.41
2023-05-06T05:25:27.548Z,44.38
2023-05-06T05:28:14.115Z,44.46
2023-05-06T05:31:04.261Z,44.42
2023-05-06T05:33:52.882Z,44.29
2023-05-06T05:36:41.431Z,44.37
2023-05-06T05:39:29.016Z,44.43
2023-05-06T05:42:17.173Z,44.41
2023-05-06T05:45:04.370Z,44.30
2023-05-06T05:47:51.054Z,44.46
2023-05-06T05:50:38.024Z,44.32
2023-05-06T05:53:25.128Z,44.37
2023-05-06T05:56:11.881Z,44.33
2023-05-06T05:58:58.953Z,44.36
2023-05-06T06:01:45.606Z,44.41
2023-05-06T06:04:32.185Z,44.41
2023-05-06T06:07:19.222Z,44.34
2023-05-06T06:10:07.529Z,44.27
2023-05-06T06:12:54.342Z,44.52
2023-05-06T06:15:42.519Z,44.65
2023-05-06T06:18:29.234Z,44.55
2023-05-06T06:21:15.937Z,44.66
2023-05-06T06:24:02.520Z,44.76
2023-05-06T06:26:49.777Z,44.93
2023-05-06T06:29:36.151Z,45.05
2023-05-06T06:32:22.586Z,45.11
2023-05-06T06:35:09.275Z,45.28
2023-05-06T06:37:56.205Z,45.41
2023-05-06T06:40:42.690Z,45.75
2023-05-06T06:43:29.577Z,45.80
2023-05-06T06:46:21.537Z,46.19
2023-05-06T06:49:08.251Z,46.17
2023-05-06T06:51:57.464Z,46.43
2023-05-06T06:54:44.027Z,46.63
2023-05-06T06:57:30.693Z,47.02
2023-05-06T07:00:17.324Z,47.36
2023-05-06T07:03:03.890Z,47.59
2023-05-06T07:05:50.544Z,48.17
2023-05-06T07:08:37.095Z,48.55
2023-05-06T07:11:23.928Z,49.15
2023-05-06T07:14:11.711Z,49.67
2023-05-06T07:16:58.095Z,50.48
2023-05-06T07:19:44.374Z,50.90
2023-05-06T07:22:31.036Z,51.14
2023-05-06T07:25:17.634Z,51.71
2023-05-06T07:28:04.405Z,51.98
2023-05-06T07:30:52.112Z,52.22
2023-05-06T07:33:38.602Z,53.21
2023-05-06T07:36:27.035Z,53.51
2023-05-06T07:39:14.085Z,53.91
2023-05-06T07:42:01.908Z,54.65
2023-05-06T07:44:48.307Z,55.35
2023-05-06T07:47:35.662Z,56.03
2023-05-06T07:50:22.565Z,56.65
2023-05-06T07:53:09.189Z,57.84
2023-05-06T07:56:02.052Z,58.62
2023-05-06T07:58:49.441Z,59.04
2023-05-06T08:01:36.172Z,59.70
2023-05-06T08:04:23.162Z,59.99
2023-05-06T08:07:10.617Z,61.02
2023-05-06T08:09:57.166Z,61.54
2023-05-06T08:12:43.737Z,65.85
2023-05-06T08:15:30.307Z,61.41
2023-05-06T08:18:22.324Z,53.66
2023-05-06T08:21:09.797Z,55.41
2023-05-06T08:23:56.400Z,57.08
2023-05-06T08:26:42.733Z,58.45
2023-05-06T08:29:29.255Z,59.57
2023-05-06T08:32:15.835Z,60.92
2023-05-06T08:35:02.404Z,65.39
2023-05-06T08:37:49.011Z,60.23
2023-05-06T08:40:44.640Z,55.99
2023-05-06T08:43:33.623Z,55.38
2023-05-06T08:46:20.160Z,57.31
2023-05-06T08:49:06.556Z,59.30
2023-05-06T08:51:53.112Z,60.07
2023-05-06T08:54:41.463Z,61.75
2023-05-06T08:57:30.578Z,64.83
2023-05-06T09:00:17.588Z,63.39
2023-05-06T09:03:04.072Z,55.89
2023-05-06T09:05:50.893Z,56.42
2023-05-06T09:08:37.429Z,56.99
2023-05-06T09:11:26.477Z,59.74
2023-05-06T09:14:17.764Z,60.84
2023-05-06T09:17:04.263Z,67.31
2023-05-06T09:19:57.216Z,61.96
2023-05-06T09:22:43.687Z,56.56
2023-05-06T09:25:30.494Z,56.35
2023-05-06T09:28:16.978Z,58.82
2023-05-06T09:31:03.849Z,59.76
2023-05-06T09:33:51.186Z,64.66
2023-05-06T09:36:38.016Z,64.94
2023-05-06T09:39:27.784Z,55.95
2023-05-06T09:42:14.482Z,54.08
2023-05-06T09:45:07.539Z,56.78
2023-05-06T09:47:54.902Z,59.52
2023-05-06T09:50:43.670Z,61.64
2023-05-06T09:53:32.749Z,63.88
2023-05-06T09:56:21.521Z,59.43
2023-05-06T09:59:08.366Z,57.13
2023-05-06T10:01:55.615Z,58.75
2023-05-06T10:04:43.076Z,63.29
2023-05-06T10:07:30.698Z,63.61
2023-05-06T10:10:18.215Z,56.03
2023-05-06T10:13:04.640Z,55.74
2023-05-06T10:15:52.103Z,58.70
2023-05-06T10:18:39.918Z,62.07
2023-05-06T10:21:32.423Z,64.59
2023-05-06T10:24:26.280Z,60.15
2023-05-06T10:27:14.102Z,55.92
2023-05-06T10:30:01.126Z,57.29
2023-05-06T10:32:48.253Z,59.42
2023-05-06T10:35:44.289Z,66.32
2023-05-06T10:38:35.890Z,63.55
2023-05-06T10:41:24.117Z,55.67
2023-05-06T10:44:10.900Z,55.68
2023-05-06T10:47:00.575Z,58.82
2023-05-06T10:50:20.055Z,60.99
2023-05-06T10:53:06.596Z,68.07
2023-05-06T10:56:09.057Z,64.45
2023-05-06T10:58:56.729Z,55.80
2023-05-06T11:01:44.521Z,55.49
2023-05-06T11:04:31.675Z,60.26
2023-05-06T11:07:23.341Z,61.21
2023-05-06T11:10:12.037Z,64.79
2023-05-06T11:12:59.086Z,62.55
2023-05-06T11:15:50.864Z,56.82
2023-05-06T11:18:40.102Z,57.77
2023-05-06T11:21:32.951Z,60.65
2023-05-06T11:24:43.901Z,67.25
2023-05-06T11:27:30.845Z,62.87
2023-05-06T11:30:17.429Z,56.28
2023-05-06T11:33:05.737Z,57.77
2023-05-06T11:35:53.224Z,60.82
2023-05-06T11:38:51.469Z,64.55
2023-05-06T11:41:41.398Z,62.07
2023-05-06T11:44:30.899Z,56.58
2023-05-06T11:47:17.166Z,58.47
2023-05-06T11:50:07.486Z,61.15
2023-05-06T11:52:54.074Z,63.68
2023-05-06T11:55:41.600Z,60.10
2023-05-06T11:58:29.327Z,57.14
2023-05-06T12:01:15.581Z,58.22
2023-05-06T12:04:02.328Z,61.17
2023-05-06T12:06:50.178Z,63.97
2023-05-06T12:09:45.699Z,65.09
2023-05-06T12:12:33.436Z,61.61
2023-05-06T12:15:20.287Z,55.48
2023-05-06T12:18:07.153Z,57.03
2023-05-06T12:20:54.876Z,58.15
2023-05-06T12:23:52.562Z,60.87
2023-05-06T12:26:44.472Z,66.47
2023-05-06T12:29:32.438Z,63.47
2023-05-06T12:32:18.858Z,57.48
2023-05-06T12:35:07.504Z,57.58
2023-05-06T12:37:54.428Z,59.18
2023-05-06T12:40:42.235Z,64.55
2023-05-06T12:43:33.218Z,61.48
2023-05-06T12:46:19.970Z,56.50
2023-05-06T12:49:06.667Z,58.93
2023-05-06T12:52:06.941Z,61.11
2023-05-06T12:54:53.377Z,65.92
2023-05-06T12:57:39.668Z,64.51
2023-05-06T13:00:25.732Z,57.22
2023-05-06T13:03:15.310Z,58.27
2023-05-06T13:06:01.970Z,61.92
2023-05-06T13:08:48.151Z,62.48
2023-05-06T13:11:35.372Z,57.52
2023-05-06T13:14:22.654Z,57.16
2023-05-06T13:17:09.435Z,60.88
2023-05-06T13:19:57.184Z,64.50
2023-05-06T13:22:54.337Z,62.05
2023-05-06T13:25:55.873Z,57.24
2023-05-06T13:28:47.631Z,58.74
2023-05-06T13:31:34.980Z,64.47
2023-05-06T13:34:21.808Z,63.22
2023-05-06T13:37:08.084Z,56.49
2023-05-06T13:39:54.512Z,57.29
2023-05-06T13:42:41.127Z,59.90
2023-05-06T13:45:27.509Z,64.49
2023-05-06T13:48:14.512Z,65.58
2023-05-06T13:51:01.083Z,57.33
2023-05-06T13:53:47.979Z,56.18
2023-05-06T13:56:35.051Z,59.78
2023-05-06T13:59:21.931Z,64.24
2023-05-06T14:02:09.807Z,61.53
2023-05-06T14:04:56.660Z,56.13
2023-05-06T14:07:43.198Z,57.75
2023-05-06T14:10:29.810Z,60.08
2023-05-06T14:13:16.170Z,64.58
2023-05-06T14:16:02.913Z,60.79
2023-05-06T14:18:49.255Z,55.92
2023-05-06T14:21:35.825Z,59.15
2023-05-06T14:24:22.165Z,61.27
2023-05-06T14:27:08.708Z,64.41
2023-05-06T14:29:55.134Z,63.69
2023-05-06T14:32:41.589Z,56.60
2023-05-06T14:35:28.131Z,57.23
2023-05-06T14:38:14.747Z,58.77
2023-05-06T14:41:01.154Z,60.49
2023-05-06T14:43:48.043Z,65.53
2023-05-06T14:46:34.714Z,63.55
2023-05-06T14:49:21.260Z,56.95
2023-05-06T14:52:07.816Z,58.76
2023-05-06T14:54:54.436Z,61.18
2023-05-06T14:57:40.777Z,66.41
2023-05-06T15:00:27.804Z,65.04
2023-05-06T15:03:14.416Z,57.38
2023-05-06T15:06:00.928Z,55.73
2023-05-06T15:08:47.622Z,58.02
2023-05-06T15:11:34.053Z,61.92
2023-05-06T15:14:20.733Z,67.08
2023-05-06T15:17:07.588Z,63.28
2023-05-06T15:19:54.500Z,56.74
2023-05-06T15:22:40.963Z,56.15
2023-05-06T15:25:34.813Z,58.27
2023-05-06T15:28:24.237Z,60.92
2023-05-06T15:31:11.116Z,65.69
2023-05-06T15:34:00.356Z,64.68
2023-05-06T15:36:52.762Z,57.66
2023-05-06T15:39:39.280Z,57.02
2023-05-06T15:42:25.872Z,60.47
2023-05-06T15:45:12.664Z,65.43
2023-05-06T15:47:59.044Z,64.19
2023-05-06T15:50:45.867Z,56.98
2023-05-06T15:53:32.320Z,57.16
2023-05-06T15:56:19.333Z,58.87
2023-05-06T15:59:08.119Z,65.29
2023-05-06T16:04:44.972Z,60.15
2023-05-06T16:07:32.257Z,55.26
2023-05-06T16:10:18.634Z,57.31
2023-05-06T16:13:05.301Z,60.33
2023-05-06T16:15:52.725Z,66.26
2023-05-06T16:18:39.169Z,64.15
2023-05-06T16:21:25.347Z,57.34
2023-05-06T16:24:11.596Z,56.89
2023-05-06T16:26:58.034Z,59.35
2023-05-06T16:29:44.683Z,67.86
2023-05-06T16:32:31.490Z,64.84
2023-05-06T16:35:18.385Z,59.43
2023-05-06T16:38:04.966Z,56.07
2023-05-06T16:40:51.663Z,59.45
2023-05-06T16:43:38.125Z,62.10
2023-05-06T16:46:24.792Z,67.79
2023-05-06T16:49:11.645Z,64.61
2023-05-06T16:51:58.437Z,60.86
2023-05-06T16:54:45.090Z,55.48
2023-05-06T16:57:31.461Z,55.93
2023-05-06T17:00:18.234Z,57.47
2023-05-06T17:03:04.943Z,60.46
2023-05-06T17:05:51.636Z,66.03
2023-05-06T17:08:37.840Z,67.00
2023-05-06T17:11:24.741Z,61.23
2023-05-06T17:14:11.630Z,55.35
2023-05-06T17:17:02.220Z,56.15
2023-05-06T17:19:48.665Z,58.84
2023-05-06T17:22:35.844Z,59.40
2023-05-06T17:25:23.350Z,69.46
2023-05-06T17:28:09.538Z,64.47
2023-05-06T17:30:56.194Z,57.96
2023-05-06T17:33:44.232Z,58.32
2023-05-06T17:36:31.321Z,59.43
2023-05-06T17:39:17.788Z,67.67
2023-05-06T17:42:04.274Z,67.81
2023-05-06T17:44:50.562Z,62.48
2023-05-06T17:47:37.003Z,55.55
2023-05-06T17:50:23.823Z,55.45
2023-05-06T17:53:10.610Z,58.03
2023-05-06T17:55:57.039Z,59.77
2023-05-06T17:58:43.522Z,69.29
2023-05-06T18:01:29.774Z,68.85
2023-05-06T18:04:16.348Z,61.75
2023-05-06T18:07:02.893Z,55.83
2023-05-06T18:09:52.055Z,56.55
2023-05-06T18:12:38.718Z,58.69
2023-05-06T18:15:25.726Z,60.97
2023-05-06T18:18:12.419Z,70.39
2023-05-06T18:20:58.707Z,66.93
2023-05-06T18:23:45.278Z,60.95
2023-05-06T18:26:43.331Z,54.84
2023-05-06T18:29:33.237Z,55.26
2023-05-06T18:32:20.006Z,58.51
2023-05-06T18:35:06.891Z,60.27
2023-05-06T18:37:53.583Z,68.80
2023-05-06T18:40:39.804Z,66.77
2023-05-06T18:43:26.526Z,62.18
2023-05-06T18:46:12.718Z,55.87
2023-05-06T18:49:00.828Z,56.21
2023-05-06T18:51:47.135Z,57.86
2023-05-06T18:54:33.742Z,60.02
2023-05-06T18:57:20.356Z,68.47
2023-05-06T19:00:08.909Z,67.02
2023-05-06T19:02:55.463Z,60.81
2023-05-06T19:05:41.974Z,54.77
2023-05-06T19:08:29.476Z,55.73
2023-05-06T19:11:18.215Z,58.03
2023-05-06T19:14:04.661Z,60.41
2023-05-06T19:16:51.498Z,68.64
2023-05-06T19:19:37.870Z,65.46
2023-05-06T19:22:24.197Z,60.52
2023-05-06T19:25:11.200Z,54.69
2023-05-06T19:27:58.456Z,55.54
2023-05-06T19:30:45.663Z,58.38
2023-05-06T19:33:32.439Z,59.15
2023-05-06T19:36:18.757Z,61.61
2023-05-06T19:39:05.781Z,72.54
2023-05-06T19:41:53.900Z,66.53
2023-05-06T19:44:42.765Z,60.06
2023-05-06T19:47:29.702Z,54.88
2023-05-06T19:50:16.266Z,56.56
2023-05-06T19:53:03.466Z,59.06
2023-05-06T19:55:50.104Z,60.23
2023-05-06T19:58:36.600Z,69.63
2023-05-06T20:01:24.396Z,69.33
2023-05-06T20:04:10.997Z,62.23
2023-05-06T20:06:57.940Z,55.72
2023-05-06T20:09:44.604Z,55.78
2023-05-06T20:12:30.997Z,58.70
2023-05-06T20:15:17.625Z,60.90
2023-05-06T20:18:04.689Z,69.81
2023-05-06T20:20:51.276Z,64.98
2023-05-06T20:23:37.884Z,59.30
2023-05-06T20:26:25.030Z,54.69
2023-05-06T20:29:11.490Z,57.01
2023-05-06T20:31:58.887Z,60.67
2023-05-06T20:34:45.558Z,68.60
2023-05-06T20:37:35.325Z,64.92
2023-05-06T20:40:21.904Z,58.73
2023-05-06T20:43:08.760Z,54.03
2023-05-06T20:45:55.982Z,57.43
2023-05-06T20:48:43.154Z,58.92
2023-05-06T20:51:29.521Z,60.17
2023-05-06T20:54:16.238Z,70.53
2023-05-06T20:57:02.740Z,66.62
2023-05-06T20:59:52.781Z,60.61
2023-05-06T21:02:41.263Z,54.68
2023-05-06T21:05:28.297Z,54.88
2023-05-06T21:08:15.069Z,58.11
2023-05-06T21:11:01.568Z,59.90
2023-05-06T21:13:49.512Z,69.21
2023-05-06T21:16:39.797Z,67.25
2023-05-06T21:19:26.856Z,60.09
2023-05-06T21:22:13.300Z,54.38
2023-05-06T21:25:00.055Z,56.39
2023-05-06T21:27:47.054Z,58.29
2023-05-06T21:30:35.263Z,59.92
2023-05-06T21:33:21.640Z,70.85
2023-05-06T21:36:08.242Z,66.29
2023-05-06T21:39:06.574Z,61.04
2023-05-06T21:41:53.120Z,54.22
2023-05-06T21:44:39.565Z,56.58
2023-05-06T21:47:25.963Z,58.65
2023-05-06T21:50:12.628Z,59.65
2023-05-06T21:52:58.981Z,69.52
2023-05-06T21:55:45.594Z,66.96
2023-05-06T21:58:32.463Z,61.30
2023-05-06T22:01:19.209Z,54.99
2023-05-06T22:04:11.503Z,56.13
2023-05-06T22:06:58.487Z,58.45
2023-05-06T22:09:45.405Z,59.17
2023-05-06T22:12:32.541Z,61.02
2023-05-06T22:15:19.522Z,72.01
2023-05-06T22:18:07.261Z,67.40
2023-05-06T22:20:56.799Z,60.99
2023-05-06T22:23:43.368Z,54.90
2023-05-06T22:26:32.880Z,56.61
2023-05-06T22:29:19.148Z,59.72
2023-05-06T22:32:06.409Z,61.91
2023-05-06T22:34:52.776Z,70.56
2023-05-06T22:37:39.182Z,65.62
2023-05-06T22:40:27.766Z,60.12
2023-05-06T22:43:13.959Z,54.49
2023-05-06T22:46:00.751Z,56.15
2023-05-06T22:48:47.615Z,59.20
2023-05-06T22:51:35.081Z,59.88
2023-05-06T22:54:22.340Z,68.32
2023-05-06T22:57:09.003Z,67.60
2023-05-06T22:59:55.497Z,61.08
2023-05-06T23:02:41.774Z,54.65
2023-05-06T23:05:28.389Z,56.13
2023-05-06T23:08:15.494Z,58.65
2023-05-06T23:11:02.068Z,59.95
2023-05-06T23:13:48.712Z,68.87
2023-05-06T23:16:35.241Z,66.61
2023-05-06T23:19:21.872Z,60.32
2023-05-06T23:22:08.402Z,54.60
2023-05-06T23:24:55.874Z,56.40
2023-05-06T23:27:43.325Z,59.46
2023-05-06T23:30:30.310Z,61.12
2023-05-06T23:33:17.223Z,70.19
2023-05-06T23:36:03.871Z,68.47
2023-05-06T23:38:50.131Z,60.69
2023-05-06T23:41:36.552Z,54.36
2023-05-06T23:44:23.090Z,56.38
2023-05-06T23:47:09.354Z,57.72
2023-05-06T23:49:55.795Z,61.24
2023-05-06T23:52:42.272Z,70.14
2023-05-06T23:55:29.301Z,67.70
2023-05-06T23:58:15.733Z,60.04
